Time;durP1;ratioP1;P1;durP2;ratioP2;P2;SDS_P1;SDS_P2;PMS_P1;PMS_P2;Temp;Humidity;BMP_temperature;BMP_pressure;BME280_temperature;BME280_humidity;BME280_pressure;Samples;Min_cycle;Max_cycle;Signal;HPM_P1;HPM_P2
2023/08/10 00:01:05;;;;;;;2.22;1.38;;;15.80;99.90;;;16.18;100.00;101432.03;5186874;28;20085;-53
2023/08/10 00:03:37;;;;;;;2.75;1.60;;;15.80;99.90;;;16.18;100.00;101435.56;5187424;28;20084;-53
2023/08/10 00:06:09;;;;;;;2.90;1.50;;;15.80;99.90;;;16.16;100.00;101437.25;5187589;28;20053;-52
2023/08/10 00:08:43;;;;;;;2.35;1.52;;;15.80;99.90;;;16.17;100.00;101440.75;5201294;28;20133;-52
2023/08/10 00:11:15;;;;;;;2.95;1.63;;;15.90;99.90;;;16.18;100.00;101447.81;5197835;28;20068;-54
2023/08/10 00:13:49;;;;;;;2.25;1.35;;;15.80;99.90;;;16.16;100.00;101441.63;5195868;28;20065;-53
2023/08/10 00:16:21;;;;;;;2.92;1.60;;;15.80;99.90;;;16.15;100.00;101439.84;5190560;28;20033;-52
2023/08/10 00:18:54;;;;;;;1.90;1.33;;;15.80;99.90;;;16.14;100.00;101444.22;5196112;28;20465;-52
2023/08/10 00:21:27;;;;;;;2.05;1.55;;;15.80;99.90;;;16.12;100.00;101450.31;5195350;28;20153;-51
2023/08/10 00:23:59;;;;;;;2.30;1.38;;;15.80;99.90;;;16.09;100.00;101447.59;5200233;28;20099;-52
2023/08/10 00:26:32;;;;;;;2.60;1.52;;;15.80;99.90;;;16.06;100.00;101442.28;5201392;28;20525;-52
2023/08/10 00:29:06;;;;;;;2.80;1.73;;;15.70;99.90;;;16.01;100.00;101445.69;5200683;28;20152;-52
2023/08/10 00:31:38;;;;;;;2.28;1.30;;;15.70;99.90;;;15.99;100.00;101439.50;5197471;28;20129;-53
2023/08/10 00:34:14;;;;;;;2.13;1.45;;;15.70;99.90;;;15.98;100.00;101437.75;5194278;28;20079;-53
2023/08/10 00:36:46;;;;;;;2.75;1.42;;;15.70;99.90;;;15.94;100.00;101435.00;5195768;28;20050;-52
2023/08/10 00:39:19;;;;;;;3.17;1.45;;;15.70;99.90;;;15.91;100.00;101435.81;5185208;28;20104;-51
2023/08/10 00:41:51;;;;;;;1.92;1.50;;;15.60;99.90;;;15.87;100.00;101441.84;5194559;28;20065;-53
2023/08/10 00:44:28;;;;;;;1.75;1.55;;;15.60;99.90;;;15.84;100.00;101438.25;5200262;28;20033;-53
2023/08/10 00:47:01;;;;;;;3.17;1.75;;;15.60;99.90;;;15.85;100.00;101442.69;5185168;28;20041;-53
2023/08/10 00:49:34;;;;;;;2.55;1.45;;;15.50;99.90;;;15.84;100.00;101443.50;5185875;28;20490;-53
2023/08/10 00:52:09;;;;;;;2.47;1.45;;;15.60;99.90;;;15.88;100.00;101435.72;5192955;28;20056;-53
2023/08/10 00:54:42;;;;;;;2.95;1.70;;;15.60;99.90;;;15.90;100.00;101459.41;5187990;28;20084;-52
2023/08/10 00:57:14;;;;;;;2.70;1.52;;;15.60;99.90;;;15.89;100.00;101448.03;5190970;28;20058;-52
2023/08/10 00:59:48;;;;;;;4.70;1.60;;;15.60;99.90;;;15.89;100.00;101440.13;5192920;28;20411;-52
2023/08/10 01:02:24;;;;;;;2.88;1.58;;;15.60;99.90;;;15.89;100.00;101447.13;5198465;28;20751;-53
2023/08/10 01:04:56;;;;;;;2.20;1.42;;;15.60;99.90;;;15.89;100.00;101444.50;5195728;28;20196;-53
2023/08/10 01:07:37;;;;;;;1.83;1.35;;;15.60;99.90;;;15.88;100.00;101448.88;5192866;28;20045;-53
2023/08/10 01:10:27;;;;;;;3.20;1.83;;;15.60;99.90;;;15.91;100.00;101448.06;5183856;28;20053;-53
2023/08/10 01:13:05;;;;;;;3.70;1.88;;;15.60;99.90;;;15.93;100.00;101455.13;5180760;28;20692;-52
2023/08/10 01:15:45;;;;;;;2.05;1.60;;;15.60;99.90;;;15.97;100.00;101456.09;5193660;28;20545;-53
2023/08/10 01:18:25;;;;;;;2.22;1.50;;;15.60;99.90;;;15.99;100.00;101452.66;5190788;28;20070;-52
2023/08/10 01:20:59;;;;;;;1.88;1.30;;;15.70;99.90;;;16.04;100.00;101452.78;5196195;28;20048;-53
2023/08/10 01:23:36;;;;;;;1.83;1.48;;;15.70;99.90;;;16.09;100.00;101447.59;5192934;28;20048;-52
2023/08/10 01:26:11;;;;;;;2.58;1.45;;;15.80;99.90;;;16.09;100.00;101450.22;5192803;28;20034;-52
2023/08/10 01:28:44;;;;;;;2.53;1.40;;;15.80;99.90;;;16.10;100.00;101457.25;5193058;28;20049;-51
2023/08/10 01:31:17;;;;;;;2.28;1.40;;;15.80;99.90;;;16.09;100.00;101460.75;5200592;28;20406;-52
2023/08/10 01:33:50;;;;;;;1.90;1.35;;;15.80;99.90;;;16.09;100.00;101463.38;5201098;28;20158;-52
2023/08/10 01:36:22;;;;;;;2.25;1.55;;;15.80;99.90;;;16.09;100.00;101466.00;5192475;28;20049;-53
2023/08/10 01:38:55;;;;;;;2.30;1.60;;;15.80;99.90;;;16.09;100.00;101458.13;5192576;28;20107;-52
2023/08/10 01:41:29;;;;;;;1.70;1.27;;;15.80;99.90;;;16.11;100.00;101461.69;5200550;28;20441;-53
2023/08/10 01:44:01;;;;;;;1.75;1.25;;;15.80;99.90;;;16.13;100.00;101462.59;5193010;28;20070;-53
2023/08/10 01:46:37;;;;;;;4.00;1.60;;;15.80;99.90;;;16.15;100.00;101460.88;5184514;28;20084;-53
2023/08/10 01:49:12;;;;;;;2.95;1.40;;;15.80;99.90;;;16.15;100.00;101459.13;5200002;28;20537;-52
2023/08/10 01:51:48;;;;;;;1.83;1.52;;;15.80;99.90;;;16.15;100.00;101466.16;5187479;28;20042;-52
2023/08/10 01:54:23;;;;;;;3.15;1.60;;;15.80;99.90;;;16.13;100.00;101467.88;5190464;28;20046;-52
2023/08/10 01:56:57;;;;;;;2.70;1.48;;;15.80;99.90;;;16.10;100.00;101466.03;5192512;28;20095;-53
2023/08/10 01:59:30;;;;;;;1.70;1.48;;;15.80;99.90;;;16.11;100.00;101453.78;5189288;28;20046;-53
2023/08/10 02:02:02;;;;;;;1.88;1.50;;;15.80;99.90;;;16.12;100.00;101463.47;5188364;28;20049;-52
2023/08/10 02:04:38;;;;;;;1.52;1.20;;;15.80;99.90;;;16.12;100.00;101460.81;5196371;28;20542;-52
2023/08/10 02:07:10;;;;;;;2.40;1.60;;;15.80;99.90;;;16.13;100.00;101474.00;5188370;28;20506;-52
2023/08/10 02:09:44;;;;;;;2.17;1.65;;;15.80;99.90;;;16.12;100.00;101468.72;5193154;28;20552;-52
2023/08/10 02:12:18;;;;;;;2.00;1.30;;;15.80;99.90;;;16.11;100.00;101465.19;5183778;28;20050;-52
2023/08/10 02:14:50;;;;;;;3.78;1.40;;;15.80;99.90;;;16.13;100.00;101471.38;5192363;28;20095;-52
2023/08/10 02:17:23;;;;;;;3.08;1.80;;;15.80;99.90;;;16.15;100.00;101481.94;5194797;28;20045;-52
2023/08/10 02:19:56;;;;;;;2.58;1.33;;;15.80;99.90;;;16.18;100.00;101476.75;5204346;28;20523;-52
2023/08/10 02:22:32;;;;;;;3.72;1.70;;;15.90;99.90;;;16.19;100.00;101468.00;5196089;28;20037;-53
2023/08/10 02:25:05;;;;;;;1.63;1.30;;;15.90;99.90;;;16.21;100.00;101471.53;5196482;28;20380;-52
2023/08/10 02:27:40;;;;;;;1.83;1.30;;;15.90;99.90;;;16.22;100.00;101468.06;5197283;28;20372;-53
2023/08/10 02:30:14;;;;;;;3.05;1.50;;;15.90;99.90;;;16.21;100.00;101463.66;5203550;28;20137;-53
2023/08/10 02:32:46;;;;;;;1.40;1.13;;;15.90;99.90;;;16.21;100.00;101461.91;5195756;28;20128;-53
2023/08/10 02:35:19;;;;;;;2.40;1.42;;;15.90;99.90;;;16.21;100.00;101455.75;5194329;28;20038;-52
2023/08/10 02:37:51;;;;;;;2.03;1.50;;;15.90;99.90;;;16.20;100.00;101452.25;5191849;28;20479;-52
2023/08/10 02:40:24;;;;;;;2.63;1.50;;;15.90;99.90;;;16.22;100.00;101462.78;5199842;28;20056;-52
2023/08/10 02:42:59;;;;;;;2.03;1.30;;;15.90;99.90;;;16.22;100.00;101457.53;5198296;28;20041;-53
2023/08/10 02:45:31;;;;;;;2.22;1.33;;;15.90;99.90;;;16.22;100.00;101457.53;5194223;28;20041;-54
2023/08/10 02:48:05;;;;;;;3.03;1.45;;;15.90;99.90;;;16.21;100.00;101461.03;5188634;28;20455;-53
2023/08/10 02:50:38;;;;;;;2.00;1.38;;;15.90;99.90;;;16.17;100.00;101465.34;5195600;28;20129;-53
2023/08/10 02:53:10;;;;;;;4.22;1.60;;;15.90;99.90;;;16.11;100.00;101459.06;5203910;28;20049;-52
2023/08/10 02:55:43;;;;;;;2.53;1.60;;;15.80;99.90;;;16.07;100.00;101468.59;5183731;28;20526;-52
2023/08/10 02:58:16;;;;;;;1.98;1.33;;;15.80;99.90;;;16.05;100.00;101464.19;5199846;28;20042;-53
2023/08/10 03:00:49;;;;;;;2.97;1.38;;;15.80;99.90;;;16.00;100.00;101451.78;5183274;28;20053;-52
2023/08/10 03:03:22;;;;;;;2.58;1.30;;;15.70;99.90;;;15.94;100.00;101462.16;5200981;28;20372;-53
2023/08/10 03:05:55;;;;;;;2.40;1.45;;;15.60;99.90;;;15.86;100.00;101470.75;5195542;28;20045;-53
2023/08/10 03:08:28;;;;;;;1.90;1.52;;;15.60;99.90;;;15.80;100.00;101462.69;5195356;28;20071;-52
2023/08/10 03:11:01;;;;;;;2.55;1.38;;;15.50;99.90;;;15.74;100.00;101455.56;5188542;28;20038;-52
2023/08/10 03:13:34;;;;;;;2.90;1.33;;;15.50;99.90;;;15.71;100.00;101458.09;5186438;28;20396;-52
2023/08/10 03:16:09;;;;;;;2.90;1.75;;;15.40;99.90;;;15.65;100.00;101458.84;5187788;28;20042;-52
2023/08/10 03:18:43;;;;;;;2.45;1.52;;;15.40;99.90;;;15.64;100.00;101464.06;5195105;28;20045;-53
2023/08/10 03:21:15;;;;;;;3.33;1.55;;;15.40;99.90;;;15.60;100.00;101459.56;5202400;28;20140;-52
2023/08/10 03:23:47;;;;;;;2.17;1.40;;;15.40;99.90;;;15.56;100.00;101473.47;5196222;28;20114;-54
2023/08/10 03:26:21;;;;;;;2.33;1.50;;;15.30;99.90;;;15.50;100.00;101473.31;5195137;28;20430;-52
2023/08/10 03:28:55;;;;;;;1.98;1.40;;;15.20;99.90;;;15.44;100.00;101474.03;5194288;28;20065;-52
2023/08/10 03:31:29;;;;;;;2.28;1.48;;;15.20;99.90;;;15.37;100.00;101486.13;5194750;28;20045;-52
2023/08/10 03:34:01;;;;;;;2.10;1.30;;;15.10;99.90;;;15.30;100.00;101485.91;5188407;28;20431;-52
2023/08/10 03:36:34;;;;;;;3.35;1.83;;;15.10;99.90;;;15.23;100.00;101487.50;5182851;28;20088;-53
2023/08/10 03:39:07;;;;;;;1.92;1.30;;;15.00;99.90;;;15.17;100.00;101485.59;5182797;28;20053;-53
2023/08/10 03:41:39;;;;;;;1.75;1.30;;;14.90;99.90;;;15.12;100.00;101487.19;5186154;28;20041;-52
2023/08/10 03:44:13;;;;;;;2.50;1.40;;;14.90;99.90;;;15.06;100.00;101487.06;5194851;28;20056;-52
2023/08/10 03:46:46;;;;;;;2.58;1.30;;;14.80;99.90;;;15.04;100.00;101498.34;5187068;28;20037;-51
2023/08/10 03:49:22;;;;;;;1.77;1.33;;;14.80;99.90;;;15.00;100.00;101500.00;5202543;28;20037;-52
2023/08/10 03:51:55;;;;;;;3.33;1.42;;;14.70;99.90;;;14.97;100.00;101497.28;5194356;28;20121;-52
2023/08/10 03:54:31;;;;;;;3.85;1.40;;;14.70;99.90;;;14.91;100.00;101492.75;5186693;28;20056;-52
2023/08/10 03:57:04;;;;;;;3.28;1.30;;;14.70;99.90;;;14.89;100.00;101510.19;5187905;28;20471;-52
2023/08/10 03:59:37;;;;;;;2.50;1.52;;;14.70;99.90;;;14.84;100.00;101509.16;5193450;28;20053;-52
2023/08/10 04:02:10;;;;;;;2.10;1.30;;;14.60;99.90;;;14.82;100.00;101513.50;5194903;28;20050;-51
2023/08/10 04:04:45;;;;;;;2.20;1.35;;;14.60;99.90;;;14.78;100.00;101510.72;5201825;28;20046;-51
2023/08/10 04:07:18;;;;;;;1.70;1.33;;;14.60;99.90;;;14.78;100.00;101515.97;5202100;28;20136;-51
2023/08/10 04:09:50;;;;;;;2.20;1.40;;;14.50;99.90;;;14.75;100.00;101503.66;5197294;28;20052;-52
2023/08/10 04:12:22;;;;;;;2.45;1.30;;;14.50;99.90;;;14.75;100.00;101506.28;5198880;28;20095;-53
2023/08/10 04:14:56;;;;;;;2.40;1.35;;;14.50;99.90;;;14.73;100.00;101502.72;5188427;28;20053;-53
2023/08/10 04:17:29;;;;;;;2.65;1.70;;;14.50;99.90;;;14.74;100.00;101504.53;5183543;28;20044;-52
2023/08/10 04:20:01;;;;;;;1.95;1.25;;;14.50;99.90;;;14.77;100.00;101508.97;5195413;28;20045;-52
2023/08/10 04:22:37;;;;;;;2.88;1.50;;;14.50;99.90;;;14.79;100.00;101521.28;5192049;28;20065;-52
2023/08/10 04:25:10;;;;;;;2.28;1.38;;;14.50;99.90;;;14.81;100.00;101519.59;5193694;28;20053;-52
2023/08/10 04:27:42;;;;;;;1.90;1.63;;;14.60;99.90;;;14.85;100.00;101516.19;5193908;28;20052;-52
2023/08/10 04:30:16;;;;;;;2.70;1.75;;;14.60;99.90;;;14.88;100.00;101518.94;5201686;28;20075;-53
2023/08/10 04:32:52;;;;;;;3.95;1.52;;;14.60;99.90;;;14.92;100.00;101526.03;5202049;28;20406;-54
2023/08/10 04:35:24;;;;;;;3.13;1.65;;;14.70;99.90;;;14.97;100.00;101528.78;5192853;28;20050;-53
2023/08/10 04:37:56;;;;;;;2.47;1.33;;;14.70;99.90;;;15.00;100.00;101525.38;5189681;28;20046;-52
2023/08/10 04:40:29;;;;;;;2.05;1.38;;;14.70;99.90;;;15.04;100.00;101532.47;5182815;28;20503;-51
2023/08/10 04:43:01;;;;;;;2.05;1.33;;;14.80;99.90;;;15.08;100.00;101534.34;5201771;28;20116;-52
2023/08/10 04:45:35;;;;;;;2.63;1.52;;;14.80;99.90;;;15.11;100.00;101537.06;5201563;28;20045;-52
2023/08/10 04:48:09;;;;;;;3.15;1.60;;;14.90;99.90;;;15.14;100.00;101530.16;5201326;28;20059;-52
2023/08/10 04:50:45;;;;;;;2.50;1.60;;;14.90;99.90;;;15.19;100.00;101536.44;5198049;28;20041;-53
2023/08/10 04:53:17;;;;;;;3.45;1.65;;;14.90;99.90;;;15.25;100.00;101538.31;5189360;28;20061;-53
2023/08/10 04:55:51;;;;;;;3.08;1.70;;;15.00;99.90;;;15.32;100.00;101537.66;5189238;28;20061;-53
2023/08/10 04:58:23;;;;;;;3.22;1.65;;;15.10;99.90;;;15.38;100.00;101542.16;5189972;28;20646;-53
2023/08/10 05:00:58;;;;;;;2.72;1.63;;;15.10;99.90;;;15.44;100.00;101537.97;5193202;28;20045;-52
2023/08/10 05:03:30;;;;;;;;;;;15.20;99.90;;;15.50;100.00;101541.63;5192029;28;20388;-52
2023/08/10 05:06:03;;;;;;;2.78;1.55;;;15.20;99.90;;;15.56;100.00;101544.41;5189179;28;20375;-53
2023/08/10 05:08:38;;;;;;;2.45;1.50;;;15.30;99.90;;;15.60;100.00;101543.66;5199001;28;20462;-53
2023/08/10 05:11:11;;;;;;;2.85;1.65;;;15.30;99.90;;;15.64;100.00;101540.28;5201082;28;20045;-52
2023/08/10 05:13:43;;;;;;;3.35;1.70;;;15.30;99.90;;;15.68;100.00;101542.13;5200565;28;20048;-55
2023/08/10 05:16:17;;;;;;;3.72;1.33;;;15.40;99.90;;;15.71;100.00;101544.84;5200788;28;20045;-55
2023/08/10 05:18:50;;;;;;;2.92;1.70;;;15.40;99.90;;;15.78;100.00;101544.16;5200632;28;20045;-55
2023/08/10 05:21:22;;;;;;;2.95;1.60;;;15.50;99.90;;;15.84;100.00;101539.03;5192370;28;20042;-53
2023/08/10 05:23:55;;;;;;;3.33;1.65;;;15.50;99.90;;;15.91;100.00;101535.72;5200663;28;20053;-57
2023/08/10 05:26:28;;;;;;;2.60;1.50;;;15.60;99.90;;;15.99;100.00;101539.44;5200398;28;20053;-54
2023/08/10 05:29:04;;;;;;;3.17;1.52;;;15.70;99.90;;;16.08;100.00;101537.88;5200374;28;20099;-54
2023/08/10 05:31:37;;;;;;;2.13;1.23;;;15.70;99.90;;;16.13;100.00;101539.75;5200668;28;20045;-55
2023/08/10 05:34:10;;;;;;;2.63;1.55;;;15.80;99.90;;;16.29;100.00;101543.63;5200681;28;20049;-55
2023/08/10 05:36:42;;;;;;;3.47;1.85;;;15.90;99.90;;;16.47;100.00;101537.91;5200297;28;20083;-54
2023/08/10 05:39:14;;;;;;;3.22;1.75;;;16.10;99.90;;;16.60;100.00;101542.59;5200397;28;20045;-54
2023/08/10 05:41:47;;;;;;;2.90;1.90;;;16.20;99.90;;;16.73;100.00;101541.16;5201928;28;20434;-54
2023/08/10 05:44:19;;;;;;;2.47;1.70;;;16.30;99.90;;;16.83;100.00;101552.78;5192433;28;20049;-56
2023/08/10 05:46:53;;;;;;;3.70;1.85;;;16.40;99.90;;;16.91;100.00;101548.56;5200226;28;20042;-55
2023/08/10 05:49:25;;;;;;;4.25;1.63;;;16.50;99.90;;;16.98;100.00;101548.72;5191975;28;20545;-55
2023/08/10 05:51:58;;;;;;;3.15;1.58;;;16.60;99.90;;;17.02;100.00;101547.94;5202238;28;20525;-55
2023/08/10 05:54:31;;;;;;;2.40;1.45;;;16.60;99.90;;;17.11;100.00;101549.84;5204340;28;20142;-54
2023/08/10 05:57:06;;;;;;;2.67;1.42;;;16.70;99.90;;;17.23;100.00;101544.81;5204434;28;20072;-55
2023/08/10 05:59:39;;;;;;;3.80;1.73;;;16.80;99.90;;;17.49;100.00;101547.94;5204152;28;20380;-55
2023/08/10 06:02:12;;;;;;;4.75;1.65;;;17.00;99.90;;;18.03;100.00;101551.53;5204157;28;20079;-55
2023/08/10 06:04:50;;;;;;;5.05;1.70;;;17.40;99.90;;;18.54;100.00;101556.72;5204447;28;20129;-55
2023/08/10 06:07:22;;;;;;;2.45;1.70;;;17.80;99.90;;;19.27;100.00;101555.94;5204170;28;20045;-56
2023/08/10 06:09:54;;;;;;;3.85;1.55;;;18.40;99.90;;;20.17;100.00;101559.47;5195829;28;20063;-55
2023/08/10 06:12:27;;;;;;;6.20;1.92;;;19.20;99.90;;;21.36;100.00;101563.66;5203892;28;20510;-56
2023/08/10 06:15:02;;;;;;;3.95;1.90;;;20.20;99.90;;;22.56;93.73;101561.03;5199877;28;20038;-55
2023/08/10 06:17:36;;;;;;;3.25;1.42;;;21.30;99.90;;;23.34;87.49;101563.41;5201623;28;20405;-56
2023/08/10 06:20:16;;;;;;;4.75;1.65;;;22.10;99.90;;;23.58;85.50;101570.38;5203810;28;20056;-54
2023/08/10 06:22:53;;;;;;;4.93;1.85;;;22.50;98.40;;;23.69;84.45;101572.09;5203662;28;20045;-56
2023/08/10 06:25:26;;;;;;;3.90;1.65;;;22.70;97.40;;;24.00;81.90;101567.44;5204214;28;20060;-55
2023/08/10 06:27:58;;;;;;;4.93;1.73;;;23.00;96.10;;;24.28;79.82;101557.41;5203872;28;20132;-54
2023/08/10 06:30:31;;;;;;;4.80;1.90;;;23.30;94.90;;;24.72;79.86;101568.53;5202846;28;20200;-55
2023/08/10 06:33:08;;;;;;;3.67;1.73;;;23.60;94.50;;;25.25;78.15;101575.00;5197120;28;20065;-57
2023/08/10 06:35:40;;;;;;;5.95;1.73;;;24.10;93.70;;;25.75;77.14;101578.75;5203394;28;20115;-55
2023/08/10 06:38:13;;;;;;;4.63;1.77;;;24.50;93.00;;;25.91;74.97;101578.50;5203908;28;20033;-54
2023/08/10 06:40:46;;;;;;;3.30;1.50;;;24.80;91.40;;;26.10;74.11;101583.53;5203045;28;20072;-55
2023/08/10 06:43:18;;;;;;;8.02;2.72;;;24.90;90.70;;;26.20;74.27;101585.13;5203882;28;20053;-54
2023/08/10 06:45:57;;;;;;;6.13;1.95;;;25.10;90.50;;;26.12;74.46;101587.94;5203470;28;20128;-55
2023/08/10 06:48:30;;;;;;;4.65;2.05;;;25.00;90.30;;;26.20;74.76;101590.47;5203333;28;20424;-54
2023/08/10 06:51:03;;;;;;;5.38;1.85;;;25.00;90.40;;;26.31;73.93;101587.63;5204600;28;20055;-54
2023/08/10 06:53:35;;;;;;;3.22;1.65;;;25.10;89.80;;;26.55;73.04;101592.56;5205026;28;20053;-54
2023/08/10 06:56:08;;;;;;;2.80;1.50;;;25.30;88.60;;;26.36;73.35;101596.44;5203641;28;20591;-54
2023/08/10 06:58:42;;;;;;;3.33;1.50;;;25.20;87.90;;;25.79;73.98;101599.16;5203308;28;20099;-57
2023/08/10 07:01:14;;;;;;;3.95;1.50;;;24.90;87.80;;;25.21;75.91;101591.94;5202981;28;20052;-55
2023/08/10 07:03:48;;;;;;;4.53;1.65;;;24.50;89.00;;;24.70;78.34;101591.63;5194838;28;20143;-55
2023/08/10 07:06:20;;;;;;;4.50;1.58;;;24.00;90.40;;;24.28;79.86;101592.03;5202906;28;20041;-55
2023/08/10 07:08:53;;;;;;;3.13;1.45;;;23.70;91.10;;;23.91;80.46;101594.13;5202647;28;20049;-54
2023/08/10 07:11:27;;;;;;;4.07;1.70;;;23.30;91.40;;;23.62;81.17;101589.00;5178893;28;20500;-55
2023/08/10 07:13:59;;;;;;;4.50;1.50;;;23.00;91.80;;;23.47;82.68;101592.63;5202970;28;20432;-54
2023/08/10 07:16:31;;;;;;;3.53;1.48;;;22.80;92.60;;;23.37;82.58;101592.66;5203027;28;20046;-55
2023/08/10 07:19:05;;;;;;;3.35;1.48;;;22.70;92.60;;;23.26;81.92;101582.06;5202816;28;20123;-55
2023/08/10 07:21:38;;;;;;;3.42;1.50;;;22.60;92.60;;;23.19;82.87;101580.34;5202109;28;20453;-55
2023/08/10 07:24:10;;;;;;;4.97;1.60;;;22.50;92.80;;;23.14;83.20;101575.03;5195054;28;20053;-55
2023/08/10 07:26:42;;;;;;;4.97;1.83;;;22.50;93.20;;;23.11;83.03;101592.78;5202399;28;20042;-54
2023/08/10 07:29:15;;;;;;;3.85;1.50;;;22.40;93.20;;;23.07;82.43;101591.03;5197763;28;20087;-56
2023/08/10 07:31:47;;;;;;;5.00;1.60;;;22.30;93.00;;;23.01;81.86;101586.63;5192879;28;20049;-57
2023/08/10 07:34:21;;;;;;;3.28;1.15;;;22.30;92.80;;;23.01;82.60;101592.81;5196708;28;20586;-55
2023/08/10 07:36:54;;;;;;;5.10;1.60;;;22.30;93.00;;;23.06;82.17;101590.16;5199513;28;20491;-56
2023/08/10 07:39:26;;;;;;;3.53;1.50;;;22.30;92.90;;;23.08;81.52;101592.78;5201169;28;20056;-53
2023/08/10 07:41:58;;;;;;;3.33;1.50;;;22.30;92.80;;;23.16;81.61;101586.56;5199943;28;20049;-55
2023/08/10 07:44:31;;;;;;;4.43;1.90;;;22.40;92.80;;;23.28;80.89;101589.19;5200703;28;20592;-55
2023/08/10 07:47:03;;;;;;;6.43;1.60;;;22.50;92.60;;;23.32;80.30;101592.69;5206992;28;20048;-55
2023/08/10 07:49:37;;;;;;;6.07;1.40;;;22.50;92.20;;;23.29;79.60;101587.41;5199451;28;20300;-57
2023/08/10 07:52:10;;;;;;;2.03;1.13;;;22.50;91.90;;;23.38;79.74;101595.31;5200415;28;20057;-58
2023/08/10 07:54:42;;;;;;;3.88;1.45;;;22.50;91.90;;;23.50;79.60;101587.28;5201075;28;20099;-55
2023/08/10 07:57:14;;;;;;;2.70;1.45;;;22.60;91.90;;;23.64;78.55;101594.31;5194835;28;20041;-57
2023/08/10 07:59:47;;;;;;;3.22;1.30;;;22.70;91.60;;;23.64;78.04;101592.53;5193536;28;20041;-55
2023/08/10 08:02:19;;;;;;;1.77;0.95;;;22.70;91.20;;;23.61;77.89;101591.66;5191632;28;20525;-54
2023/08/10 08:04:53;;;;;;;2.22;0.93;;;22.70;91.00;;;23.75;76.99;101596.03;5199970;28;22355;-54
2023/08/10 08:07:26;;;;;;;2.95;0.98;;;22.80;90.70;;;23.92;75.64;101585.22;5197363;28;20507;-54
2023/08/10 08:09:58;;;;;;;2.90;1.30;;;22.90;90.10;;;23.95;74.47;101584.34;5201542;28;20453;-57
2023/08/10 08:12:32;;;;;;;2.38;0.88;;;22.90;89.10;;;24.07;74.68;101584.25;5201812;28;20045;-54
2023/08/10 08:15:05;;;;;;;2.83;1.27;;;22.90;89.10;;;24.36;73.39;101584.88;5201519;28;20050;-54
2023/08/10 08:18:34;;;;;;;2.20;0.73;;;23.10;88.80;;;24.75;70.72;101576.47;5201732;28;20045;-55
2023/08/10 08:21:08;;;;;;;2.70;1.08;;;23.30;86.50;;;25.35;69.78;101581.97;5201374;28;20053;-54
2023/08/10 08:23:41;;;;;;;1.50;0.90;;;23.60;85.60;;;26.04;68.30;101580.97;5200771;28;20084;-53
2023/08/10 08:26:14;;;;;;;2.42;1.00;;;23.90;84.70;;;26.60;66.30;101573.72;5195158;28;20053;-56
2023/08/10 08:28:48;;;;;;;1.35;0.63;;;24.20;83.10;;;27.16;64.49;101586.00;5201806;28;20091;-54
2023/08/10 08:31:20;;;;;;;1.30;0.75;;;24.50;81.70;;;27.60;62.73;101586.78;5200226;28;20053;-55
2023/08/10 08:33:53;;;;;;;2.33;0.77;;;24.70;80.00;;;28.20;61.55;101586.22;5200604;28;20041;-55
2023/08/10 08:36:26;;;;;;;2.55;1.20;;;24.90;79.60;;;28.96;60.46;101580.63;5202111;28;20053;-55
2023/08/10 08:39:01;;;;;;;3.08;0.90;;;25.20;79.50;;;29.94;59.17;101583.84;5198146;28;20042;-57
2023/08/10 08:41:38;;;;;;;2.30;0.90;;;25.70;79.10;;;31.23;55.39;101573.84;5198547;28;20407;-55
2023/08/10 08:44:10;;;;;;;2.28;0.93;;;26.50;76.40;;;32.35;52.60;101573.78;5193914;28;20143;-55
2023/08/10 08:46:49;;;;;;;1.65;0.85;;;27.40;73.80;;;33.38;50.22;101591.53;5200964;28;20045;-54
2023/08/10 08:49:22;;;;;;;2.75;0.85;;;28.40;71.30;;;34.05;46.75;101584.69;5200635;28;20060;-56
2023/08/10 08:51:56;;;;;;;1.33;0.60;;;29.30;66.40;;;34.45;44.75;101583.53;5198386;28;20049;-59
2023/08/10 08:54:29;;;;;;;1.38;0.80;;;29.90;62.80;;;34.67;44.03;101577.81;5196315;28;20084;-56
2023/08/10 08:57:04;;;;;;;2.22;0.90;;;30.30;60.60;;;34.79;43.05;101576.28;5200936;28;20050;-56
2023/08/10 08:59:37;;;;;;;1.85;0.90;;;30.50;59.30;;;34.86;43.03;101582.25;5193225;28;20064;-56
2023/08/10 09:02:11;;;;;;;1.55;0.80;;;30.60;58.30;;;35.10;42.06;101567.38;5189357;28;20065;-57
2023/08/10 09:04:44;;;;;;;1.10;0.73;;;30.80;57.40;;;35.30;40.99;101567.13;5197616;28;20061;-56
2023/08/10 09:07:18;;;;;;;2.05;0.93;;;31.00;55.80;;;35.50;40.93;101565.16;5187060;28;20056;-56
2023/08/10 09:09:51;;;;;;;2.55;0.90;;;31.20;55.70;;;35.58;41.75;101552.03;5189212;28;20049;-55
2023/08/10 09:12:31;;;;;;;2.63;0.93;;;31.40;56.30;;;35.61;41.98;101560.88;5188050;28;20042;-55
2023/08/10 09:15:07;;;;;;;3.33;0.85;;;31.50;56.50;;;35.44;41.46;101558.25;5198764;28;20546;-56
2023/08/10 09:17:46;;;;;;;2.30;0.98;;;31.40;55.50;;;35.22;41.65;101557.72;5200654;28;20041;-55
2023/08/10 09:20:20;;;;;;;2.78;0.98;;;31.40;55.30;;;34.85;42.54;101540.75;5200726;28;20453;-55
2023/08/10 09:22:57;;;;;;;3.20;1.00;;;31.30;55.40;;;34.20;42.74;101547.84;5200041;28;20054;-55
2023/08/10 09:25:37;;;;;;;3.90;0.80;;;31.10;55.50;;;33.02;43.38;101552.78;5198889;28;20499;-55
2023/08/10 09:28:12;;;;;;;2.05;0.65;;;30.50;55.00;;;31.90;44.39;101554.16;5203494;28;20103;-56
2023/08/10 09:30:44;;;;;;;1.90;0.90;;;29.80;55.10;;;31.10;45.73;101545.63;5199976;28;20049;-55
2023/08/10 09:33:31;;;;;;;1.90;0.80;;;29.20;55.80;;;30.45;48.18;101541.75;5200891;28;20045;-54
2023/08/10 09:36:05;;;;;;;1.90;0.77;;;28.80;57.60;;;29.96;49.23;101547.03;5200339;28;20041;-54
2023/08/10 09:38:41;;;;;;;1.92;0.85;;;28.50;58.30;;;29.53;48.92;101549.38;5200449;28;20049;-55
2023/08/10 09:41:15;;;;;;;2.13;0.90;;;28.20;58.00;;;29.08;50.05;101541.78;5200354;28;20132;-55
2023/08/10 09:43:48;;;;;;;1.55;0.73;;;27.90;58.40;;;28.70;50.69;101541.09;5200498;28;20406;-54
2023/08/10 09:46:20;;;;;;;1.20;0.70;;;27.60;59.00;;;28.41;50.84;101533.88;5200294;28;20057;-55
2023/08/10 09:48:53;;;;;;;2.15;0.85;;;27.30;59.30;;;28.24;52.28;101542.34;5200455;28;20045;-54
2023/08/10 09:51:25;;;;;;;1.35;0.75;;;27.10;60.30;;;28.13;53.87;101541.75;5197771;28;20045;-55
2023/08/10 09:53:59;;;;;;;1.15;0.90;;;27.00;61.90;;;27.91;54.18;101538.75;5200366;28;20046;-54
2023/08/10 09:56:32;;;;;;;2.00;0.75;;;26.80;62.00;;;27.58;54.13;101545.75;5200207;28;20049;-54
2023/08/10 09:59:05;;;;;;;2.22;0.95;;;26.60;62.00;;;27.22;54.04;101543.03;5198857;28;20085;-55
2023/08/10 10:01:38;;;;;;;1.23;0.82;;;26.30;61.70;;;26.96;54.96;101540.03;5200284;28;20064;-55
2023/08/10 10:04:11;;;;;;;3.15;0.93;;;26.10;62.40;;;26.90;54.89;101537.47;5199894;28;20054;-54
2023/08/10 10:06:44;;;;;;;2.22;0.82;;;25.90;63.30;;;26.87;55.22;101540.22;5192645;28;20049;-55
2023/08/10 10:09:18;;;;;;;2.20;1.10;;;25.90;62.90;;;26.93;56.45;101537.38;5200081;28;20045;-53
2023/08/10 10:11:52;;;;;;;1.08;0.82;;;25.90;64.30;;;27.01;56.44;101538.13;5200016;28;20045;-53
2023/08/10 10:14:25;;;;;;;3.45;1.02;;;26.00;64.40;;;27.06;56.62;101530.94;5200236;28;20053;-55
2023/08/10 10:16:58;;;;;;;2.65;1.20;;;26.10;64.50;;;27.10;56.59;101537.94;5201016;28;20400;-53
2023/08/10 10:19:31;;;;;;;2.50;1.27;;;26.10;64.70;;;27.08;57.03;101531.75;5200340;28;20522;-55
2023/08/10 10:22:04;;;;;;;2.80;1.10;;;26.10;65.10;;;27.02;56.25;101519.34;5198353;28;20202;-55
2023/08/10 10:24:41;;;;;;;3.10;1.50;;;26.10;64.30;;;27.01;56.24;101522.06;5189069;28;20053;-53
2023/08/10 10:27:16;;;;;;;2.33;1.10;;;26.00;64.40;;;27.00;56.61;101514.97;5199897;28;20048;-53
2023/08/10 10:29:58;;;;;;;3.13;1.00;;;26.00;64.60;;;27.09;57.27;101519.25;5191648;28;20099;-53
2023/08/10 10:32:30;;;;;;;3.38;1.10;;;26.10;65.50;;;27.13;57.15;101515.63;5198820;28;20159;-56
2023/08/10 10:35:02;;;;;;;2.45;1.10;;;26.10;65.40;;;27.19;56.95;101511.00;5193196;28;20061;-56